sensor_id;sensor_type;location;lat;lon;timestamp;temperature;humidity
10245;DHT22;5167;52.164;10.530;2023-08-06T00:00:38;18.80;60.00
10245;DHT22;5167;52.164;10.530;2023-08-06T00:03:04;18.70;60.30
10245;DHT22;5167;52.164;10.530;2023-08-06T00:05:30;18.80;60.30
10245;DHT22;5167;52.164;10.530;2023-08-06T00:07:55;18.80;60.60
10245;DHT22;5167;52.164;10.530;2023-08-06T00:10:21;18.80;61.00
10245;DHT22;5167;52.164;10.530;2023-08-06T00:12:46;18.80;61.30
10245;DHT22;5167;52.164;10.530;2023-08-06T00:15:12;18.70;61.90
10245;DHT22;5167;52.164;10.530;2023-08-06T00:17:38;18.80;61.60
10245;DHT22;5167;52.164;10.530;2023-08-06T00:20:04;18.80;62.40
10245;DHT22;5167;52.164;10.530;2023-08-06T00:22:32;18.70;61.60
10245;DHT22;5167;52.164;10.530;2023-08-06T00:24:58;18.70;61.00
10245;DHT22;5167;52.164;10.530;2023-08-06T00:27:24;18.60;60.60
10245;DHT22;5167;52.164;10.530;2023-08-06T00:29:49;18.60;61.20
10245;DHT22;5167;52.164;10.530;2023-08-06T00:32:15;18.70;60.80
10245;DHT22;5167;52.164;10.530;2023-08-06T00:34:40;18.60;60.60
10245;DHT22;5167;52.164;10.530;2023-08-06T00:37:06;18.60;60.80
10245;DHT22;5167;52.164;10.530;2023-08-06T00:39:31;18.60;61.90
10245;DHT22;5167;52.164;10.530;2023-08-06T00:41:57;18.50;61.90
10245;DHT22;5167;52.164;10.530;2023-08-06T00:44:23;18.60;62.10
10245;DHT22;5167;52.164;10.530;2023-08-06T00:46:49;18.60;61.90
10245;DHT22;5167;52.164;10.530;2023-08-06T00:49:15;18.60;61.90
10245;DHT22;5167;52.164;10.530;2023-08-06T00:51:40;18.70;61.80
10245;DHT22;5167;52.164;10.530;2023-08-06T00:54:07;18.70;61.30
10245;DHT22;5167;52.164;10.530;2023-08-06T00:56:34;18.70;61.50
10245;DHT22;5167;52.164;10.530;2023-08-06T00:59:01;18.70;61.30
10245;DHT22;5167;52.164;10.530;2023-08-06T01:01:26;18.60;61.70
10245;DHT22;5167;52.164;10.530;2023-08-06T01:03:53;18.60;61.90
10245;DHT22;5167;52.164;10.530;2023-08-06T01:06:29;18.50;61.60
10245;DHT22;5167;52.164;10.530;2023-08-06T01:09:08;18.60;62.20
10245;DHT22;5167;52.164;10.530;2023-08-06T01:15:05;18.50;62.40
10245;DHT22;5167;52.164;10.530;2023-08-06T01:17:34;18.50;62.40
10245;DHT22;5167;52.164;10.530;2023-08-06T01:20:00;18.50;63.10
10245;DHT22;5167;52.164;10.530;2023-08-06T01:22:26;18.50;63.40
10245;DHT22;5167;52.164;10.530;2023-08-06T01:24:53;18.50;63.60
10245;DHT22;5167;52.164;10.530;2023-08-06T01:27:33;18.50;63.70
10245;DHT22;5167;52.164;10.530;2023-08-06T01:30:12;18.50;64.20
10245;DHT22;5167;52.164;10.530;2023-08-06T01:32:42;18.40;64.50
10245;DHT22;5167;52.164;10.530;2023-08-06T01:35:11;18.40;64.50
10245;DHT22;5167;52.164;10.530;2023-08-06T01:37:37;18.40;64.10
10245;DHT22;5167;52.164;10.530;2023-08-06T01:40:10;18.40;63.90
10245;DHT22;5167;52.164;10.530;2023-08-06T01:42:37;18.40;63.20
10245;DHT22;5167;52.164;10.530;2023-08-06T01:45:03;18.40;63.20
10245;DHT22;5167;52.164;10.530;2023-08-06T01:47:29;18.40;63.80
10245;DHT22;5167;52.164;10.530;2023-08-06T01:49:54;18.40;65.00
10245;DHT22;5167;52.164;10.530;2023-08-06T01:52:20;18.30;65.20
10245;DHT22;5167;52.164;10.530;2023-08-06T01:54:45;18.40;65.20
10245;DHT22;5167;52.164;10.530;2023-08-06T01:57:10;18.40;65.00
10245;DHT22;5167;52.164;10.530;2023-08-06T01:59:36;18.40;66.00
10245;DHT22;5167;52.164;10.530;2023-08-06T02:02:02;18.30;64.80
10245;DHT22;5167;52.164;10.530;2023-08-06T02:04:28;18.40;66.70
10245;DHT22;5167;52.164;10.530;2023-08-06T02:06:53;18.40;66.00
10245;DHT22;5167;52.164;10.530;2023-08-06T02:09:19;18.30;66.90
10245;DHT22;5167;52.164;10.530;2023-08-06T02:11:44;18.30;66.50
10245;DHT22;5167;52.164;10.530;2023-08-06T02:14:10;18.30;66.90
10245;DHT22;5167;52.164;10.530;2023-08-06T02:16:35;18.50;66.60
10245;DHT22;5167;52.164;10.530;2023-08-06T02:19:01;18.30;66.70
10245;DHT22;5167;52.164;10.530;2023-08-06T02:21:26;18.30;66.60
10245;DHT22;5167;52.164;10.530;2023-08-06T02:23:52;18.30;66.80
10245;DHT22;5167;52.164;10.530;2023-08-06T02:26:17;18.30;66.70
10245;DHT22;5167;52.164;10.530;2023-08-06T02:28:43;18.30;66.30
10245;DHT22;5167;52.164;10.530;2023-08-06T02:31:09;18.30;67.20
10245;DHT22;5167;52.164;10.530;2023-08-06T02:33:34;18.20;67.80
10245;DHT22;5167;52.164;10.530;2023-08-06T02:36:01;18.20;68.00
10245;DHT22;5167;52.164;10.530;2023-08-06T02:38:27;18.30;68.90
10245;DHT22;5167;52.164;10.530;2023-08-06T02:40:52;18.20;69.10
10245;DHT22;5167;52.164;10.530;2023-08-06T02:43:18;18.30;69.00
10245;DHT22;5167;52.164;10.530;2023-08-06T02:45:43;18.30;69.10
10245;DHT22;5167;52.164;10.530;2023-08-06T02:48:08;18.20;69.10
10245;DHT22;5167;52.164;10.530;2023-08-06T02:50:41;18.20;70.10
10245;DHT22;5167;52.164;10.530;2023-08-06T02:53:07;18.20;70.40
10245;DHT22;5167;52.164;10.530;2023-08-06T02:55:34;18.20;70.20
10245;DHT22;5167;52.164;10.530;2023-08-06T02:58:01;18.20;70.90
10245;DHT22;5167;52.164;10.530;2023-08-06T03:00:26;18.20;71.80
10245;DHT22;5167;52.164;10.530;2023-08-06T03:02:53;18.20;72.10
10245;DHT22;5167;52.164;10.530;2023-08-06T03:05:18;18.20;72.00
10245;DHT22;5167;52.164;10.530;2023-08-06T03:07:44;18.20;72.60
10245;DHT22;5167;52.164;10.530;2023-08-06T03:10:09;18.20;73.00
10245;DHT22;5167;52.164;10.530;2023-08-06T03:12:35;18.20;73.10
10245;DHT22;5167;52.164;10.530;2023-08-06T03:15:00;18.10;73.70
10245;DHT22;5167;52.164;10.530;2023-08-06T03:17:26;18.20;74.00
10245;DHT22;5167;52.164;10.530;2023-08-06T03:19:52;18.20;74.30
10245;DHT22;5167;52.164;10.530;2023-08-06T03:22:17;18.20;74.40
10245;DHT22;5167;52.164;10.530;2023-08-06T03:24:43;18.20;74.60
10245;DHT22;5167;52.164;10.530;2023-08-06T03:27:08;18.20;74.20
10245;DHT22;5167;52.164;10.530;2023-08-06T03:29:34;18.20;74.40
10245;DHT22;5167;52.164;10.530;2023-08-06T03:31:59;18.10;74.80
10245;DHT22;5167;52.164;10.530;2023-08-06T03:34:25;18.10;75.40
10245;DHT22;5167;52.164;10.530;2023-08-06T03:36:50;18.10;74.90
10245;DHT22;5167;52.164;10.530;2023-08-06T03:39:15;18.10;74.60
10245;DHT22;5167;52.164;10.530;2023-08-06T03:41:41;18.10;74.60
10245;DHT22;5167;52.164;10.530;2023-08-06T03:44:07;18.20;76.30
10245;DHT22;5167;52.164;10.530;2023-08-06T03:46:32;18.20;76.30
10245;DHT22;5167;52.164;10.530;2023-08-06T03:48:59;18.10;76.30
10245;DHT22;5167;52.164;10.530;2023-08-06T03:51:25;18.10;76.80
10245;DHT22;5167;52.164;10.530;2023-08-06T03:53:50;18.20;77.40
10245;DHT22;5167;52.164;10.530;2023-08-06T03:56:16;18.10;78.10
10245;DHT22;5167;52.164;10.530;2023-08-06T03:58:41;18.10;78.40
10245;DHT22;5167;52.164;10.530;2023-08-06T04:01:07;18.20;79.40
10245;DHT22;5167;52.164;10.530;2023-08-06T04:03:32;18.10;79.90
10245;DHT22;5167;52.164;10.530;2023-08-06T04:05:58;18.20;78.10
10245;DHT22;5167;52.164;10.530;2023-08-06T04:08:24;18.20;79.50
10245;DHT22;5167;52.164;10.530;2023-08-06T04:10:51;18.20;79.40
10245;DHT22;5167;52.164;10.530;2023-08-06T04:13:17;18.20;79.20
10245;DHT22;5167;52.164;10.530;2023-08-06T04:15:42;18.10;79.10
10245;DHT22;5167;52.164;10.530;2023-08-06T04:18:08;18.20;79.40
10245;DHT22;5167;52.164;10.530;2023-08-06T04:20:33;18.20;79.00
10245;DHT22;5167;52.164;10.530;2023-08-06T04:22:59;18.20;78.60
10245;DHT22;5167;52.164;10.530;2023-08-06T04:25:30;18.20;78.90
10245;DHT22;5167;52.164;10.530;2023-08-06T04:27:56;18.10;80.60
10245;DHT22;5167;52.164;10.530;2023-08-06T04:30:21;18.20;79.10
10245;DHT22;5167;52.164;10.530;2023-08-06T04:32:49;18.10;79.70
10245;DHT22;5167;52.164;10.530;2023-08-06T04:35:14;18.20;79.60
10245;DHT22;5167;52.164;10.530;2023-08-06T04:37:40;18.10;80.10
10245;DHT22;5167;52.164;10.530;2023-08-06T04:40:06;18.20;80.90
10245;DHT22;5167;52.164;10.530;2023-08-06T04:42:32;18.10;80.60
10245;DHT22;5167;52.164;10.530;2023-08-06T04:44:57;18.20;81.30
10245;DHT22;5167;52.164;10.530;2023-08-06T04:47:23;18.10;80.50
10245;DHT22;5167;52.164;10.530;2023-08-06T04:49:48;18.10;81.40
10245;DHT22;5167;52.164;10.530;2023-08-06T04:52:13;18.10;81.90
10245;DHT22;5167;52.164;10.530;2023-08-06T04:54:39;18.10;81.70
10245;DHT22;5167;52.164;10.530;2023-08-06T04:57:11;18.10;81.50
10245;DHT22;5167;52.164;10.530;2023-08-06T04:59:36;18.20;81.50
10245;DHT22;5167;52.164;10.530;2023-08-06T05:02:02;18.10;81.50
10245;DHT22;5167;52.164;10.530;2023-08-06T05:04:28;18.10;81.00
10245;DHT22;5167;52.164;10.530;2023-08-06T05:06:53;18.10;82.20
10245;DHT22;5167;52.164;10.530;2023-08-06T05:09:19;18.20;82.10
10245;DHT22;5167;52.164;10.530;2023-08-06T05:11:46;18.10;82.80
10245;DHT22;5167;52.164;10.530;2023-08-06T05:14:11;18.10;83.40
10245;DHT22;5167;52.164;10.530;2023-08-06T05:16:37;18.10;84.40
10245;DHT22;5167;52.164;10.530;2023-08-06T05:19:02;18.20;85.30
10245;DHT22;5167;52.164;10.530;2023-08-06T05:21:28;18.20;85.30
10245;DHT22;5167;52.164;10.530;2023-08-06T05:23:54;18.20;85.40
10245;DHT22;5167;52.164;10.530;2023-08-06T05:26:19;18.20;85.20
10245;DHT22;5167;52.164;10.530;2023-08-06T05:28:45;18.30;85.50
10245;DHT22;5167;52.164;10.530;2023-08-06T05:31:11;18.20;84.30
10245;DHT22;5167;52.164;10.530;2023-08-06T05:33:37;18.30;84.20
10245;DHT22;5167;52.164;10.530;2023-08-06T05:36:02;18.20;84.40
10245;DHT22;5167;52.164;10.530;2023-08-06T05:38:30;18.20;83.40
10245;DHT22;5167;52.164;10.530;2023-08-06T05:40:55;18.30;84.10
10245;DHT22;5167;52.164;10.530;2023-08-06T05:43:21;18.30;84.10
10245;DHT22;5167;52.164;10.530;2023-08-06T05:45:49;18.20;83.90
10245;DHT22;5167;52.164;10.530;2023-08-06T05:48:15;18.20;84.40
10245;DHT22;5167;52.164;10.530;2023-08-06T05:50:40;18.30;84.30
10245;DHT22;5167;52.164;10.530;2023-08-06T05:53:06;18.20;85.30
10245;DHT22;5167;52.164;10.530;2023-08-06T05:55:31;18.30;85.10
10245;DHT22;5167;52.164;10.530;2023-08-06T05:57:58;18.20;86.30
10245;DHT22;5167;52.164;10.530;2023-08-06T06:00:23;18.30;85.50
10245;DHT22;5167;52.164;10.530;2023-08-06T06:02:49;18.20;87.40
10245;DHT22;5167;52.164;10.530;2023-08-06T06:05:15;18.30;88.10
10245;DHT22;5167;52.164;10.530;2023-08-06T06:07:40;18.30;88.20
10245;DHT22;5167;52.164;10.530;2023-08-06T06:10:06;18.30;88.80
10245;DHT22;5167;52.164;10.530;2023-08-06T06:12:32;18.40;88.70
10245;DHT22;5167;52.164;10.530;2023-08-06T06:14:57;18.30;88.80
10245;DHT22;5167;52.164;10.530;2023-08-06T06:17:23;18.30;89.30
10245;DHT22;5167;52.164;10.530;2023-08-06T06:19:49;18.40;90.10
10245;DHT22;5167;52.164;10.530;2023-08-06T06:22:14;18.40;90.60
10245;DHT22;5167;52.164;10.530;2023-08-06T06:24:40;18.50;91.30
10245;DHT22;5167;52.164;10.530;2023-08-06T06:27:05;18.50;90.40
10245;DHT22;5167;52.164;10.530;2023-08-06T06:29:31;18.50;92.10
10245;DHT22;5167;52.164;10.530;2023-08-06T06:31:56;18.60;92.10
10245;DHT22;5167;52.164;10.530;2023-08-06T06:34:22;18.70;91.50
10245;DHT22;5167;52.164;10.530;2023-08-06T06:36:47;18.70;91.70
10245;DHT22;5167;52.164;10.530;2023-08-06T06:39:13;18.70;91.90
10245;DHT22;5167;52.164;10.530;2023-08-06T06:41:39;18.70;90.80
10245;DHT22;5167;52.164;10.530;2023-08-06T06:44:05;18.80;90.30
10245;DHT22;5167;52.164;10.530;2023-08-06T06:46:31;18.80;90.20
10245;DHT22;5167;52.164;10.530;2023-08-06T06:48:56;18.90;90.00
10245;DHT22;5167;52.164;10.530;2023-08-06T06:51:22;18.90;90.10
10245;DHT22;5167;52.164;10.530;2023-08-06T06:53:47;18.90;91.30
10245;DHT22;5167;52.164;10.530;2023-08-06T06:56:13;18.90;91.10
10245;DHT22;5167;52.164;10.530;2023-08-06T06:58:39;19.00;91.20
10245;DHT22;5167;52.164;10.530;2023-08-06T07:01:06;19.00;92.60
10245;DHT22;5167;52.164;10.530;2023-08-06T07:03:32;19.10;92.50
10245;DHT22;5167;52.164;10.530;2023-08-06T07:05:58;19.20;92.80
10245;DHT22;5167;52.164;10.530;2023-08-06T07:08:26;19.20;93.60
10245;DHT22;5167;52.164;10.530;2023-08-06T07:11:02;19.40;93.60
10245;DHT22;5167;52.164;10.530;2023-08-06T07:13:29;19.40;91.90
10245;DHT22;5167;52.164;10.530;2023-08-06T07:15:55;19.50;91.70
10245;DHT22;5167;52.164;10.530;2023-08-06T07:18:21;19.60;91.60
10245;DHT22;5167;52.164;10.530;2023-08-06T07:20:51;19.60;90.20
10245;DHT22;5167;52.164;10.530;2023-08-06T07:23:17;19.70;87.30
10245;DHT22;5167;52.164;10.530;2023-08-06T07:25:43;19.70;85.20
10245;DHT22;5167;52.164;10.530;2023-08-06T07:28:10;19.80;83.00
10245;DHT22;5167;52.164;10.530;2023-08-06T07:30:38;19.80;82.90
10245;DHT22;5167;52.164;10.530;2023-08-06T07:33:04;19.80;83.80
10245;DHT22;5167;52.164;10.530;2023-08-06T07:35:30;19.90;83.80
10245;DHT22;5167;52.164;10.530;2023-08-06T07:37:55;19.90;81.70
10245;DHT22;5167;52.164;10.530;2023-08-06T07:40:21;20.00;79.50
10245;DHT22;5167;52.164;10.530;2023-08-06T07:42:46;20.00;76.00
10245;DHT22;5167;52.164;10.530;2023-08-06T07:45:12;20.10;75.10
10245;DHT22;5167;52.164;10.530;2023-08-06T07:47:37;20.20;72.70
10245;DHT22;5167;52.164;10.530;2023-08-06T07:50:03;20.30;70.90
10245;DHT22;5167;52.164;10.530;2023-08-06T07:52:28;20.30;68.40
10245;DHT22;5167;52.164;10.530;2023-08-06T07:54:54;20.30;68.90
10245;DHT22;5167;52.164;10.530;2023-08-06T07:57:19;20.40;66.20
10245;DHT22;5167;52.164;10.530;2023-08-06T07:59:45;20.50;65.00
10245;DHT22;5167;52.164;10.530;2023-08-06T08:02:10;20.60;63.60
10245;DHT22;5167;52.164;10.530;2023-08-06T08:04:36;20.70;61.80
10245;DHT22;5167;52.164;10.530;2023-08-06T08:07:01;20.80;59.40
10245;DHT22;5167;52.164;10.530;2023-08-06T08:09:27;20.90;57.40
10245;DHT22;5167;52.164;10.530;2023-08-06T08:11:53;20.90;49.80
10245;DHT22;5167;52.164;10.530;2023-08-06T08:14:18;21.00;50.40
10245;DHT22;5167;52.164;10.530;2023-08-06T08:16:44;21.00;49.10
10245;DHT22;5167;52.164;10.530;2023-08-06T08:19:09;21.00;47.10
10245;DHT22;5167;52.164;10.530;2023-08-06T08:21:35;21.20;45.50
10245;DHT22;5167;52.164;10.530;2023-08-06T08:24:01;21.30;43.70
10245;DHT22;5167;52.164;10.530;2023-08-06T08:26:26;21.50;43.30
10245;DHT22;5167;52.164;10.530;2023-08-06T08:28:55;21.50;38.80
10245;DHT22;5167;52.164;10.530;2023-08-06T08:31:21;21.50;39.30
10245;DHT22;5167;52.164;10.530;2023-08-06T08:33:46;21.60;40.40
10245;DHT22;5167;52.164;10.530;2023-08-06T08:36:12;21.60;40.00
10245;DHT22;5167;52.164;10.530;2023-08-06T08:38:37;21.70;39.10
10245;DHT22;5167;52.164;10.530;2023-08-06T08:41:03;21.70;40.20
10245;DHT22;5167;52.164;10.530;2023-08-06T08:43:29;21.80;43.20
10245;DHT22;5167;52.164;10.530;2023-08-06T08:45:55;21.80;43.60
10245;DHT22;5167;52.164;10.530;2023-08-06T08:48:24;21.90;41.20
10245;DHT22;5167;52.164;10.530;2023-08-06T08:50:50;21.90;40.00
10245;DHT22;5167;52.164;10.530;2023-08-06T08:53:17;22.00;40.70
10245;DHT22;5167;52.164;10.530;2023-08-06T08:55:43;22.00;42.00
10245;DHT22;5167;52.164;10.530;2023-08-06T08:58:10;22.20;39.80
10245;DHT22;5167;52.164;10.530;2023-08-06T09:00:35;22.30;37.90
10245;DHT22;5167;52.164;10.530;2023-08-06T09:03:02;22.40;36.80
10245;DHT22;5167;52.164;10.530;2023-08-06T09:05:30;22.30;34.80
10245;DHT22;5167;52.164;10.530;2023-08-06T09:08:11;22.40;33.30
10245;DHT22;5167;52.164;10.530;2023-08-06T09:10:39;22.40;32.70
10245;DHT22;5167;52.164;10.530;2023-08-06T09:13:05;22.50;32.80
10245;DHT22;5167;52.164;10.530;2023-08-06T09:15:32;22.60;34.00
10245;DHT22;5167;52.164;10.530;2023-08-06T09:17:58;22.60;32.40
10245;DHT22;5167;52.164;10.530;2023-08-06T09:20:24;22.60;30.80
10245;DHT22;5167;52.164;10.530;2023-08-06T09:22:53;22.70;28.50
10245;DHT22;5167;52.164;10.530;2023-08-06T09:25:25;22.80;28.30
10245;DHT22;5167;52.164;10.530;2023-08-06T09:27:52;22.90;22.10
10245;DHT22;5167;52.164;10.530;2023-08-06T09:30:34;23.00;19.40
10245;DHT22;5167;52.164;10.530;2023-08-06T09:33:00;23.00;25.00
10245;DHT22;5167;52.164;10.530;2023-08-06T09:35:29;23.20;19.50
10245;DHT22;5167;52.164;10.530;2023-08-06T09:37:55;23.20;12.50
10245;DHT22;5167;52.164;10.530;2023-08-06T09:40:24;23.40;14.50
10245;DHT22;5167;52.164;10.530;2023-08-06T09:42:49;23.50;14.70
10245;DHT22;5167;52.164;10.530;2023-08-06T09:45:16;23.70;12.60
10245;DHT22;5167;52.164;10.530;2023-08-06T09:47:42;23.80;11.20
10245;DHT22;5167;52.164;10.530;2023-08-06T09:50:18;23.90;12.20
10245;DHT22;5167;52.164;10.530;2023-08-06T09:52:44;24.20;10.30
10245;DHT22;5167;52.164;10.530;2023-08-06T09:55:14;24.30;10.70
10245;DHT22;5167;52.164;10.530;2023-08-06T09:57:43;24.40;11.20
10245;DHT22;5167;52.164;10.530;2023-08-06T10:00:09;24.60;11.80
10245;DHT22;5167;52.164;10.530;2023-08-06T10:02:37;24.80;7.10
10245;DHT22;5167;52.164;10.530;2023-08-06T10:05:05;24.90;5.00
10245;DHT22;5167;52.164;10.530;2023-08-06T10:07:30;24.90;5.00
10245;DHT22;5167;52.164;10.530;2023-08-06T10:09:56;24.80;5.00
10245;DHT22;5167;52.164;10.530;2023-08-06T10:12:23;24.70;5.00
10245;DHT22;5167;52.164;10.530;2023-08-06T10:14:51;24.70;5.00
10245;DHT22;5167;52.164;10.530;2023-08-06T10:17:18;24.80;5.00
10245;DHT22;5167;52.164;10.530;2023-08-06T10:19:44;25.00;5.00
10245;DHT22;5167;52.164;10.530;2023-08-06T10:22:16;25.10;5.00
10245;DHT22;5167;52.164;10.530;2023-08-06T10:27:11;25.30;5.00
10245;DHT22;5167;52.164;10.530;2023-08-06T10:29:37;25.30;5.00
10245;DHT22;5167;52.164;10.530;2023-08-06T10:32:03;25.30;5.00
10245;DHT22;5167;52.164;10.530;2023-08-06T10:34:56;25.30;5.00
10245;DHT22;5167;52.164;10.530;2023-08-06T10:37:22;25.30;5.00
10245;DHT22;5167;52.164;10.530;2023-08-06T10:39:52;25.40;5.00
10245;DHT22;5167;52.164;10.530;2023-08-06T10:42:22;25.40;5.00
10245;DHT22;5167;52.164;10.530;2023-08-06T10:45:16;25.40;5.00
10245;DHT22;5167;52.164;10.530;2023-08-06T10:47:43;25.50;5.00
10245;DHT22;5167;52.164;10.530;2023-08-06T10:50:12;25.60;5.00
10245;DHT22;5167;52.164;10.530;2023-08-06T10:52:39;25.70;5.00
10245;DHT22;5167;52.164;10.530;2023-08-06T10:55:05;25.70;5.00
10245;DHT22;5167;52.164;10.530;2023-08-06T10:57:31;25.70;5.00
10245;DHT22;5167;52.164;10.530;2023-08-06T10:59:56;25.80;5.00
10245;DHT22;5167;52.164;10.530;2023-08-06T11:02:22;25.80;5.00
10245;DHT22;5167;52.164;10.530;2023-08-06T11:04:48;25.80;5.00
10245;DHT22;5167;52.164;10.530;2023-08-06T11:07:14;25.80;5.00
10245;DHT22;5167;52.164;10.530;2023-08-06T11:09:39;25.80;5.00
10245;DHT22;5167;52.164;10.530;2023-08-06T11:12:11;25.90;5.00
10245;DHT22;5167;52.164;10.530;2023-08-06T11:14:37;25.90;5.00
10245;DHT22;5167;52.164;10.530;2023-08-06T11:17:05;26.00;5.00
10245;DHT22;5167;52.164;10.530;2023-08-06T11:19:31;26.00;5.00
10245;DHT22;5167;52.164;10.530;2023-08-06T11:21:56;26.10;5.00
10245;DHT22;5167;52.164;10.530;2023-08-06T11:24:24;26.00;5.00
10245;DHT22;5167;52.164;10.530;2023-08-06T11:26:49;26.00;5.00
10245;DHT22;5167;52.164;10.530;2023-08-06T11:29:15;25.90;5.00
10245;DHT22;5167;52.164;10.530;2023-08-06T11:31:41;25.90;5.00
10245;DHT22;5167;52.164;10.530;2023-08-06T11:34:06;25.80;5.00
10245;DHT22;5167;52.164;10.530;2023-08-06T11:36:33;25.70;5.00
10245;DHT22;5167;52.164;10.530;2023-08-06T11:39:00;25.60;5.00
10245;DHT22;5167;52.164;10.530;2023-08-06T11:41:28;25.50;5.00
10245;DHT22;5167;52.164;10.530;2023-08-06T11:43:54;25.50;5.00
10245;DHT22;5167;52.164;10.530;2023-08-06T11:46:20;25.40;5.00
10245;DHT22;5167;52.164;10.530;2023-08-06T11:48:53;25.50;5.00
10245;DHT22;5167;52.164;10.530;2023-08-06T11:51:18;25.50;5.00
10245;DHT22;5167;52.164;10.530;2023-08-06T11:53:51;25.40;5.00
10245;DHT22;5167;52.164;10.530;2023-08-06T11:56:16;25.40;5.00
10245;DHT22;5167;52.164;10.530;2023-08-06T11:58:42;25.50;5.00
10245;DHT22;5167;52.164;10.530;2023-08-06T12:01:08;25.50;5.00
10245;DHT22;5167;52.164;10.530;2023-08-06T12:03:42;25.60;5.00
10245;DHT22;5167;52.164;10.530;2023-08-06T12:06:07;25.60;5.00
10245;DHT22;5167;52.164;10.530;2023-08-06T12:08:33;25.50;5.00
10245;DHT22;5167;52.164;10.530;2023-08-06T12:10:58;25.50;5.00
10245;DHT22;5167;52.164;10.530;2023-08-06T12:13:24;25.40;5.00
10245;DHT22;5167;52.164;10.530;2023-08-06T12:15:50;25.40;5.00
10245;DHT22;5167;52.164;10.530;2023-08-06T12:18:18;25.30;5.00
10245;DHT22;5167;52.164;10.530;2023-08-06T12:20:43;25.30;5.00
10245;DHT22;5167;52.164;10.530;2023-08-06T12:23:09;25.30;5.00
10245;DHT22;5167;52.164;10.530;2023-08-06T12:25:35;25.20;5.00
10245;DHT22;5167;52.164;10.530;2023-08-06T12:28:01;25.30;5.00
10245;DHT22;5167;52.164;10.530;2023-08-06T12:30:26;25.30;5.00
10245;DHT22;5167;52.164;10.530;2023-08-06T12:32:52;25.30;5.00
10245;DHT22;5167;52.164;10.530;2023-08-06T12:35:17;25.40;5.00
10245;DHT22;5167;52.164;10.530;2023-08-06T12:37:43;25.40;5.00
10245;DHT22;5167;52.164;10.530;2023-08-06T12:40:09;25.40;5.00
10245;DHT22;5167;52.164;10.530;2023-08-06T12:42:35;25.40;5.00
10245;DHT22;5167;52.164;10.530;2023-08-06T12:45:01;25.40;5.00
10245;DHT22;5167;52.164;10.530;2023-08-06T12:47:26;25.60;5.00
10245;DHT22;5167;52.164;10.530;2023-08-06T12:49:52;25.60;5.00
10245;DHT22;5167;52.164;10.530;2023-08-06T12:52:17;25.60;5.00
10245;DHT22;5167;52.164;10.530;2023-08-06T12:54:45;25.70;5.00
10245;DHT22;5167;52.164;10.530;2023-08-06T12:57:11;25.60;5.00
10245;DHT22;5167;52.164;10.530;2023-08-06T12:59:37;25.50;5.00
10245;DHT22;5167;52.164;10.530;2023-08-06T13:02:03;25.70;5.00
10245;DHT22;5167;52.164;10.530;2023-08-06T13:04:28;25.60;5.00
10245;DHT22;5167;52.164;10.530;2023-08-06T13:06:54;25.50;5.00
10245;DHT22;5167;52.164;10.530;2023-08-06T13:09:19;25.70;5.00
10245;DHT22;5167;52.164;10.530;2023-08-06T13:11:45;25.40;5.00
10245;DHT22;5167;52.164;10.530;2023-08-06T13:14:15;25.30;5.00
10245;DHT22;5167;52.164;10.530;2023-08-06T13:16:42;25.30;5.00
10245;DHT22;5167;52.164;10.530;2023-08-06T13:19:09;25.20;5.00
10245;DHT22;5167;52.164;10.530;2023-08-06T13:24:06;25.20;5.00
10245;DHT22;5167;52.164;10.530;2023-08-06T13:26:31;25.10;5.00
10245;DHT22;5167;52.164;10.530;2023-08-06T13:28:58;25.10;5.00
10245;DHT22;5167;52.164;10.530;2023-08-06T13:31:24;25.00;5.00
10245;DHT22;5167;52.164;10.530;2023-08-06T13:33:50;25.00;5.00
10245;DHT22;5167;52.164;10.530;2023-08-06T13:36:16;24.80;5.00
10245;DHT22;5167;52.164;10.530;2023-08-06T13:38:42;24.90;5.00
10245;DHT22;5167;52.164;10.530;2023-08-06T13:41:07;24.90;5.00
10245;DHT22;5167;52.164;10.530;2023-08-06T13:43:33;24.90;5.00
10245;DHT22;5167;52.164;10.530;2023-08-06T13:45:58;24.90;5.00
10245;DHT22;5167;52.164;10.530;2023-08-06T13:48:24;24.90;5.00
10245;DHT22;5167;52.164;10.530;2023-08-06T13:50:49;24.80;5.00
10245;DHT22;5167;52.164;10.530;2023-08-06T13:53:15;24.90;5.00
10245;DHT22;5167;52.164;10.530;2023-08-06T13:55:41;24.80;5.00
10245;DHT22;5167;52.164;10.530;2023-08-06T13:58:06;24.80;5.00
10245;DHT22;5167;52.164;10.530;2023-08-06T14:00:32;24.80;5.00
10245;DHT22;5167;52.164;10.530;2023-08-06T14:02:57;24.80;5.00
10245;DHT22;5167;52.164;10.530;2023-08-06T14:05:23;24.80;5.00
10245;DHT22;5167;52.164;10.530;2023-08-06T14:07:48;24.80;5.00
10245;DHT22;5167;52.164;10.530;2023-08-06T14:10:14;24.80;5.00
10245;DHT22;5167;52.164;10.530;2023-08-06T14:12:40;24.80;5.00
10245;DHT22;5167;52.164;10.530;2023-08-06T14:15:06;24.70;5.00
10245;DHT22;5167;52.164;10.530;2023-08-06T14:17:31;24.70;5.00
10245;DHT22;5167;52.164;10.530;2023-08-06T14:19:57;24.70;5.00
10245;DHT22;5167;52.164;10.530;2023-08-06T14:22:22;24.80;5.00
10245;DHT22;5167;52.164;10.530;2023-08-06T14:24:48;24.70;5.00
10245;DHT22;5167;52.164;10.530;2023-08-06T14:27:13;24.70;5.00
10245;DHT22;5167;52.164;10.530;2023-08-06T14:29:39;24.80;5.00
10245;DHT22;5167;52.164;10.530;2023-08-06T14:32:05;24.80;5.00
10245;DHT22;5167;52.164;10.530;2023-08-06T14:34:31;24.90;5.00
10245;DHT22;5167;52.164;10.530;2023-08-06T14:36:57;25.00;5.00
10245;DHT22;5167;52.164;10.530;2023-08-06T14:39:22;25.00;5.00
10245;DHT22;5167;52.164;10.530;2023-08-06T14:41:48;25.00;5.00
10245;DHT22;5167;52.164;10.530;2023-08-06T14:44:13;25.00;5.00
10245;DHT22;5167;52.164;10.530;2023-08-06T14:46:39;25.00;5.00
10245;DHT22;5167;52.164;10.530;2023-08-06T14:49:04;25.00;5.00
10245;DHT22;5167;52.164;10.530;2023-08-06T14:51:30;25.10;5.00
10245;DHT22;5167;52.164;10.530;2023-08-06T14:53:56;25.00;5.00
10245;DHT22;5167;52.164;10.530;2023-08-06T14:56:21;25.00;5.00
10245;DHT22;5167;52.164;10.530;2023-08-06T14:58:48;25.10;5.00
10245;DHT22;5167;52.164;10.530;2023-08-06T15:01:14;25.10;5.00
10245;DHT22;5167;52.164;10.530;2023-08-06T15:03:39;25.00;5.00
10245;DHT22;5167;52.164;10.530;2023-08-06T15:06:05;25.00;5.00
10245;DHT22;5167;52.164;10.530;2023-08-06T15:08:30;25.00;5.00
10245;DHT22;5167;52.164;10.530;2023-08-06T15:10:56;25.00;5.00
10245;DHT22;5167;52.164;10.530;2023-08-06T15:13:21;25.00;5.00
10245;DHT22;5167;52.164;10.530;2023-08-06T15:15:48;25.00;5.00
10245;DHT22;5167;52.164;10.530;2023-08-06T15:18:13;24.90;5.00
10245;DHT22;5167;52.164;10.530;2023-08-06T15:20:39;24.90;5.00
10245;DHT22;5167;52.164;10.530;2023-08-06T15:23:04;24.90;5.00
10245;DHT22;5167;52.164;10.530;2023-08-06T15:25:30;24.90;5.00
10245;DHT22;5167;52.164;10.530;2023-08-06T15:27:55;24.80;5.00
10245;DHT22;5167;52.164;10.530;2023-08-06T15:30:21;24.80;5.00
10245;DHT22;5167;52.164;10.530;2023-08-06T15:32:47;24.80;5.00
10245;DHT22;5167;52.164;10.530;2023-08-06T15:35:13;24.80;5.00
10245;DHT22;5167;52.164;10.530;2023-08-06T15:37:39;24.80;5.00
10245;DHT22;5167;52.164;10.530;2023-08-06T15:40:06;24.70;5.00